sensor_id;sensor_type;location;lat;lon;timestamp;P1;durP1;ratioP1;P2;durP2;ratioP2
25351;SDS011;13304;48.464;8.712;2023-10-13T00:00:37;10.13;;;3.58;;
25351;SDS011;13304;48.464;8.712;2023-10-13T00:05:40;10.68;;;3.60;;
25351;SDS011;13304;48.464;8.712;2023-10-13T00:08:07;6.55;;;3.67;;
25351;SDS011;13304;48.464;8.712;2023-10-13T00:10:34;10.43;;;3.53;;
25351;SDS011;13304;48.464;8.712;2023-10-13T00:12:59;8.45;;;3.75;;
25351;SDS011;13304;48.464;8.712;2023-10-13T00:18:09;10.30;;;3.90;;
25351;SDS011;13304;48.464;8.712;2023-10-13T00:20:42;8.05;;;3.47;;
25351;SDS011;13304;48.464;8.712;2023-10-13T00:23:14;12.82;;;3.65;;
25351;SDS011;13304;48.464;8.712;2023-10-13T00:25:46;13.23;;;4.20;;
25351;SDS011;13304;48.464;8.712;2023-10-13T00:28:18;11.68;;;3.97;;
25351;SDS011;13304;48.464;8.712;2023-10-13T00:30:51;13.57;;;3.70;;
25351;SDS011;13304;48.464;8.712;2023-10-13T00:33:24;11.05;;;3.72;;
25351;SDS011;13304;48.464;8.712;2023-10-13T00:35:50;13.02;;;4.50;;
25351;SDS011;13304;48.464;8.712;2023-10-13T00:38:22;7.90;;;3.72;;
25351;SDS011;13304;48.464;8.712;2023-10-13T00:40:49;9.38;;;3.72;;
25351;SDS011;13304;48.464;8.712;2023-10-13T00:43:18;10.40;;;4.22;;
25351;SDS011;13304;48.464;8.712;2023-10-13T00:45:45;7.28;;;3.65;;
25351;SDS011;13304;48.464;8.712;2023-10-13T00:48:32;10.40;;;4.13;;
25351;SDS011;13304;48.464;8.712;2023-10-13T00:51:08;7.03;;;3.55;;
25351;SDS011;13304;48.464;8.712;2023-10-13T00:53:57;11.32;;;3.92;;
25351;SDS011;13304;48.464;8.712;2023-10-13T00:56:27;10.05;;;4.05;;
25351;SDS011;13304;48.464;8.712;2023-10-13T00:58:55;10.45;;;3.20;;
25351;SDS011;13304;48.464;8.712;2023-10-13T01:01:27;12.02;;;4.05;;
25351;SDS011;13304;48.464;8.712;2023-10-13T01:03:58;11.48;;;3.88;;
25351;SDS011;13304;48.464;8.712;2023-10-13T01:06:30;14.68;;;4.03;;
25351;SDS011;13304;48.464;8.712;2023-10-13T01:09:03;11.95;;;4.40;;
25351;SDS011;13304;48.464;8.712;2023-10-13T01:11:49;11.13;;;4.20;;
25351;SDS011;13304;48.464;8.712;2023-10-13T01:14:19;13.02;;;3.90;;
25351;SDS011;13304;48.464;8.712;2023-10-13T01:16:46;9.77;;;3.65;;
25351;SDS011;13304;48.464;8.712;2023-10-13T01:19:17;10.85;;;4.15;;
25351;SDS011;13304;48.464;8.712;2023-10-13T01:21:43;11.10;;;3.70;;
25351;SDS011;13304;48.464;8.712;2023-10-13T01:24:09;14.55;;;3.92;;
25351;SDS011;13304;48.464;8.712;2023-10-13T01:26:36;7.03;;;3.63;;
25351;SDS011;13304;48.464;8.712;2023-10-13T01:29:06;6.05;;;3.42;;
25351;SDS011;13304;48.464;8.712;2023-10-13T01:31:39;10.77;;;3.78;;
25351;SDS011;13304;48.464;8.712;2023-10-13T01:34:11;10.02;;;4.53;;
25351;SDS011;13304;48.464;8.712;2023-10-13T01:36:48;8.68;;;3.15;;
25351;SDS011;13304;48.464;8.712;2023-10-13T01:39:16;9.90;;;4.07;;
25351;SDS011;13304;48.464;8.712;2023-10-13T01:41:42;13.60;;;4.38;;
25351;SDS011;13304;48.464;8.712;2023-10-13T01:44:08;15.10;;;4.15;;
25351;SDS011;13304;48.464;8.712;2023-10-13T01:46:39;10.07;;;3.72;;
25351;SDS011;13304;48.464;8.712;2023-10-13T01:49:07;8.50;;;3.95;;
25351;SDS011;13304;48.464;8.712;2023-10-13T01:51:33;13.23;;;3.97;;
25351;SDS011;13304;48.464;8.712;2023-10-13T01:53:59;12.55;;;3.78;;
25351;SDS011;13304;48.464;8.712;2023-10-13T01:56:28;12.38;;;3.85;;
25351;SDS011;13304;48.464;8.712;2023-10-13T01:58:55;10.27;;;3.85;;
25351;SDS011;13304;48.464;8.712;2023-10-13T02:01:21;11.82;;;4.35;;
25351;SDS011;13304;48.464;8.712;2023-10-13T02:03:53;14.18;;;3.85;;
25351;SDS011;13304;48.464;8.712;2023-10-13T02:06:29;9.23;;;3.60;;
25351;SDS011;13304;48.464;8.712;2023-10-13T02:09:01;7.63;;;3.58;;
25351;SDS011;13304;48.464;8.712;2023-10-13T02:11:47;16.77;;;4.25;;
25351;SDS011;13304;48.464;8.712;2023-10-13T02:14:12;9.20;;;4.07;;
25351;SDS011;13304;48.464;8.712;2023-10-13T02:19:07;7.13;;;3.88;;
25351;SDS011;13304;48.464;8.712;2023-10-13T02:21:34;13.48;;;4.07;;
25351;SDS011;13304;48.464;8.712;2023-10-13T02:24:07;11.85;;;4.35;;
25351;SDS011;13304;48.464;8.712;2023-10-13T02:26:38;8.88;;;4.03;;
25351;SDS011;13304;48.464;8.712;2023-10-13T02:29:05;10.23;;;4.10;;
25351;SDS011;13304;48.464;8.712;2023-10-13T02:31:37;9.25;;;4.10;;
25351;SDS011;13304;48.464;8.712;2023-10-13T02:34:04;14.80;;;4.22;;
25351;SDS011;13304;48.464;8.712;2023-10-13T02:36:36;10.15;;;4.25;;
25351;SDS011;13304;48.464;8.712;2023-10-13T02:39:13;13.85;;;4.32;;
25351;SDS011;13304;48.464;8.712;2023-10-13T02:41:49;8.63;;;4.05;;
25351;SDS011;13304;48.464;8.712;2023-10-13T02:44:15;10.02;;;4.32;;
25351;SDS011;13304;48.464;8.712;2023-10-13T02:46:51;9.50;;;4.18;;
25351;SDS011;13304;48.464;8.712;2023-10-13T02:49:20;8.48;;;4.28;;
25351;SDS011;13304;48.464;8.712;2023-10-13T02:51:51;9.48;;;4.22;;
25351;SDS011;13304;48.464;8.712;2023-10-13T02:54:32;7.97;;;4.10;;
25351;SDS011;13304;48.464;8.712;2023-10-13T02:57:04;14.75;;;4.10;;
25351;SDS011;13304;48.464;8.712;2023-10-13T02:59:31;9.45;;;3.67;;
25351;SDS011;13304;48.464;8.712;2023-10-13T03:02:11;12.73;;;4.10;;
25351;SDS011;13304;48.464;8.712;2023-10-13T03:04:52;7.30;;;3.83;;
25351;SDS011;13304;48.464;8.712;2023-10-13T03:07:28;6.80;;;3.70;;
25351;SDS011;13304;48.464;8.712;2023-10-13T03:12:26;7.72;;;4.10;;
25351;SDS011;13304;48.464;8.712;2023-10-13T03:14:58;9.77;;;4.25;;
25351;SDS011;13304;48.464;8.712;2023-10-13T03:17:38;9.30;;;3.58;;
25351;SDS011;13304;48.464;8.712;2023-10-13T03:20:08;9.00;;;3.55;;
25351;SDS011;13304;48.464;8.712;2023-10-13T03:22:47;8.40;;;3.45;;
25351;SDS011;13304;48.464;8.712;2023-10-13T03:25:17;16.25;;;4.30;;
25351;SDS011;13304;48.464;8.712;2023-10-13T03:28:03;12.07;;;3.78;;
25351;SDS011;13304;48.464;8.712;2023-10-13T03:30:30;15.45;;;4.07;;
25351;SDS011;13304;48.464;8.712;2023-10-13T03:33:16;9.75;;;3.78;;
25351;SDS011;13304;48.464;8.712;2023-10-13T03:35:50;10.60;;;3.78;;
25351;SDS011;13304;48.464;8.712;2023-10-13T03:38:19;8.75;;;3.50;;
25351;SDS011;13304;48.464;8.712;2023-10-13T03:40:50;9.57;;;3.90;;
25351;SDS011;13304;48.464;8.712;2023-10-13T03:43:33;9.95;;;3.92;;
25351;SDS011;13304;48.464;8.712;2023-10-13T03:46:10;7.82;;;4.13;;
25351;SDS011;13304;48.464;8.712;2023-10-13T03:48:35;9.32;;;3.75;;
25351;SDS011;13304;48.464;8.712;2023-10-13T03:51:22;9.15;;;3.85;;
25351;SDS011;13304;48.464;8.712;2023-10-13T03:53:55;11.45;;;4.00;;
25351;SDS011;13304;48.464;8.712;2023-10-13T03:56:25;6.30;;;3.30;;
25351;SDS011;13304;48.464;8.712;2023-10-13T03:59:06;8.57;;;3.67;;
25351;SDS011;13304;48.464;8.712;2023-10-13T04:01:42;12.43;;;3.35;;
25351;SDS011;13304;48.464;8.712;2023-10-13T04:04:23;9.93;;;3.50;;
25351;SDS011;13304;48.464;8.712;2023-10-13T04:07:15;11.13;;;3.58;;
25351;SDS011;13304;48.464;8.712;2023-10-13T04:10:00;12.55;;;3.83;;
25351;SDS011;13304;48.464;8.712;2023-10-13T04:13:04;14.00;;;4.20;;
25351;SDS011;13304;48.464;8.712;2023-10-13T04:15:48;8.48;;;3.83;;
25351;SDS011;13304;48.464;8.712;2023-10-13T04:18:32;9.38;;;3.80;;
25351;SDS011;13304;48.464;8.712;2023-10-13T04:21:16;7.20;;;3.40;;
25351;SDS011;13304;48.464;8.712;2023-10-13T04:24:00;12.30;;;3.80;;
25351;SDS011;13304;48.464;8.712;2023-10-13T04:26:45;10.25;;;3.28;;
25351;SDS011;13304;48.464;8.712;2023-10-13T04:29:31;11.98;;;4.10;;
25351;SDS011;13304;48.464;8.712;2023-10-13T04:32:17;8.50;;;3.60;;
25351;SDS011;13304;48.464;8.712;2023-10-13T04:34:58;8.48;;;3.63;;
25351;SDS011;13304;48.464;8.712;2023-10-13T04:40:17;8.35;;;3.50;;
25351;SDS011;13304;48.464;8.712;2023-10-13T04:42:50;9.70;;;4.00;;
25351;SDS011;13304;48.464;8.712;2023-10-13T04:45:21;8.70;;;3.80;;
25351;SDS011;13304;48.464;8.712;2023-10-13T04:48:00;10.75;;;3.78;;
25351;SDS011;13304;48.464;8.712;2023-10-13T04:50:47;8.98;;;3.55;;
25351;SDS011;13304;48.464;8.712;2023-10-13T04:53:23;7.00;;;3.97;;
25351;SDS011;13304;48.464;8.712;2023-10-13T04:55:58;7.32;;;3.45;;
25351;SDS011;13304;48.464;8.712;2023-10-13T05:01:02;9.40;;;3.88;;
25351;SDS011;13304;48.464;8.712;2023-10-13T05:06:37;11.02;;;3.88;;
25351;SDS011;13304;48.464;8.712;2023-10-13T05:09:09;8.82;;;4.30;;
25351;SDS011;13304;48.464;8.712;2023-10-13T05:11:53;10.23;;;4.10;;
25351;SDS011;13304;48.464;8.712;2023-10-13T05:14:38;7.30;;;3.88;;
25351;SDS011;13304;48.464;8.712;2023-10-13T05:17:22;10.48;;;4.28;;
25351;SDS011;13304;48.464;8.712;2023-10-13T05:20:07;10.00;;;4.03;;
25351;SDS011;13304;48.464;8.712;2023-10-13T05:22:51;10.95;;;4.03;;
25351;SDS011;13304;48.464;8.712;2023-10-13T05:25:36;7.88;;;3.80;;
25351;SDS011;13304;48.464;8.712;2023-10-13T05:28:20;9.50;;;4.10;;
25351;SDS011;13304;48.464;8.712;2023-10-13T05:31:04;11.38;;;4.35;;
25351;SDS011;13304;48.464;8.712;2023-10-13T05:33:48;14.45;;;4.20;;
25351;SDS011;13304;48.464;8.712;2023-10-13T05:36:33;9.35;;;4.05;;
25351;SDS011;13304;48.464;8.712;2023-10-13T05:39:17;16.95;;;4.68;;
25351;SDS011;13304;48.464;8.712;2023-10-13T05:42:02;10.07;;;3.58;;
25351;SDS011;13304;48.464;8.712;2023-10-13T05:44:46;10.35;;;3.97;;
25351;SDS011;13304;48.464;8.712;2023-10-13T05:47:41;10.18;;;4.75;;
25351;SDS011;13304;48.464;8.712;2023-10-13T05:50:15;11.52;;;4.63;;
25351;SDS011;13304;48.464;8.712;2023-10-13T05:52:47;11.23;;;4.00;;
25351;SDS011;13304;48.464;8.712;2023-10-13T05:55:26;13.25;;;4.03;;
25351;SDS011;13304;48.464;8.712;2023-10-13T05:58:15;10.02;;;4.43;;
25351;SDS011;13304;48.464;8.712;2023-10-13T06:00:59;6.53;;;3.83;;
25351;SDS011;13304;48.464;8.712;2023-10-13T06:03:44;9.10;;;3.95;;
25351;SDS011;13304;48.464;8.712;2023-10-13T06:06:28;12.13;;;4.35;;
25351;SDS011;13304;48.464;8.712;2023-10-13T06:09:12;8.27;;;4.00;;
25351;SDS011;13304;48.464;8.712;2023-10-13T06:11:56;12.27;;;4.35;;
25351;SDS011;13304;48.464;8.712;2023-10-13T06:14:45;12.23;;;4.32;;
25351;SDS011;13304;48.464;8.712;2023-10-13T06:17:29;9.90;;;4.47;;
25351;SDS011;13304;48.464;8.712;2023-10-13T06:20:14;11.38;;;4.60;;
25351;SDS011;13304;48.464;8.712;2023-10-13T06:22:58;12.48;;;4.60;;
25351;SDS011;13304;48.464;8.712;2023-10-13T06:25:42;9.10;;;4.03;;
25351;SDS011;13304;48.464;8.712;2023-10-13T06:28:26;12.45;;;4.35;;
25351;SDS011;13304;48.464;8.712;2023-10-13T06:31:08;10.40;;;3.95;;
25351;SDS011;13304;48.464;8.712;2023-10-13T06:33:46;14.30;;;4.30;;
25351;SDS011;13304;48.464;8.712;2023-10-13T06:36:12;11.45;;;4.10;;
25351;SDS011;13304;48.464;8.712;2023-10-13T06:38:37;15.35;;;4.35;;
25351;SDS011;13304;48.464;8.712;2023-10-13T06:41:04;11.63;;;4.28;;
25351;SDS011;13304;48.464;8.712;2023-10-13T06:43:31;10.45;;;3.90;;
25351;SDS011;13304;48.464;8.712;2023-10-13T06:46:08;14.70;;;3.85;;
25351;SDS011;13304;48.464;8.712;2023-10-13T06:48:39;11.70;;;3.60;;
25351;SDS011;13304;48.464;8.712;2023-10-13T06:51:06;8.18;;;3.95;;
25351;SDS011;13304;48.464;8.712;2023-10-13T06:53:47;7.38;;;3.67;;
25351;SDS011;13304;48.464;8.712;2023-10-13T06:56:17;10.52;;;4.28;;
25351;SDS011;13304;48.464;8.712;2023-10-13T06:58:52;10.48;;;3.97;;
25351;SDS011;13304;48.464;8.712;2023-10-13T07:01:24;12.15;;;4.07;;
25351;SDS011;13304;48.464;8.712;2023-10-13T07:03:53;14.98;;;4.10;;
25351;SDS011;13304;48.464;8.712;2023-10-13T07:06:22;13.95;;;4.25;;
25351;SDS011;13304;48.464;8.712;2023-10-13T07:08:48;7.45;;;3.78;;
25351;SDS011;13304;48.464;8.712;2023-10-13T07:11:26;14.10;;;4.03;;
25351;SDS011;13304;48.464;8.712;2023-10-13T07:13:59;14.55;;;4.13;;
25351;SDS011;13304;48.464;8.712;2023-10-13T07:16:34;12.02;;;4.35;;
25351;SDS011;13304;48.464;8.712;2023-10-13T07:19:01;12.50;;;4.05;;
25351;SDS011;13304;48.464;8.712;2023-10-13T07:21:31;14.38;;;4.20;;
25351;SDS011;13304;48.464;8.712;2023-10-13T07:23:58;13.82;;;3.83;;
25351;SDS011;13304;48.464;8.712;2023-10-13T07:26:33;14.57;;;4.00;;
25351;SDS011;13304;48.464;8.712;2023-10-13T07:29:00;11.68;;;3.85;;
25351;SDS011;13304;48.464;8.712;2023-10-13T07:31:25;10.75;;;4.07;;
25351;SDS011;13304;48.464;8.712;2023-10-13T07:33:52;9.55;;;4.28;;
25351;SDS011;13304;48.464;8.712;2023-10-13T07:36:28;12.75;;;3.47;;
25351;SDS011;13304;48.464;8.712;2023-10-13T07:38:58;14.13;;;3.70;;
25351;SDS011;13304;48.464;8.712;2023-10-13T07:41:42;11.50;;;3.60;;
25351;SDS011;13304;48.464;8.712;2023-10-13T07:44:08;9.85;;;3.60;;
25351;SDS011;13304;48.464;8.712;2023-10-13T07:46:33;14.75;;;4.05;;
25351;SDS011;13304;48.464;8.712;2023-10-13T07:49:00;7.55;;;3.28;;
25351;SDS011;13304;48.464;8.712;2023-10-13T07:51:37;10.68;;;4.10;;
25351;SDS011;13304;48.464;8.712;2023-10-13T07:54:13;13.02;;;4.03;;
25351;SDS011;13304;48.464;8.712;2023-10-13T07:56:46;5.97;;;3.38;;
25351;SDS011;13304;48.464;8.712;2023-10-13T07:59:12;11.02;;;3.47;;
25351;SDS011;13304;48.464;8.712;2023-10-13T08:01:40;7.97;;;3.58;;
25351;SDS011;13304;48.464;8.712;2023-10-13T08:04:11;10.82;;;3.97;;
25351;SDS011;13304;48.464;8.712;2023-10-13T08:06:39;10.20;;;3.58;;
25351;SDS011;13304;48.464;8.712;2023-10-13T08:09:06;12.55;;;3.92;;
25351;SDS011;13304;48.464;8.712;2023-10-13T08:11:33;8.88;;;3.42;;
25351;SDS011;13304;48.464;8.712;2023-10-13T08:14:00;13.75;;;4.13;;
25351;SDS011;13304;48.464;8.712;2023-10-13T08:16:45;19.10;;;4.07;;
25351;SDS011;13304;48.464;8.712;2023-10-13T08:19:18;8.30;;;3.35;;
25351;SDS011;13304;48.464;8.712;2023-10-13T08:21:46;20.90;;;4.10;;
25351;SDS011;13304;48.464;8.712;2023-10-13T08:24:22;10.98;;;3.67;;
25351;SDS011;13304;48.464;8.712;2023-10-13T08:27:23;16.50;;;4.32;;
25351;SDS011;13304;48.464;8.712;2023-10-13T08:30:13;9.38;;;3.55;;
25351;SDS011;13304;48.464;8.712;2023-10-13T08:32:54;11.43;;;3.75;;
25351;SDS011;13304;48.464;8.712;2023-10-13T08:35:22;13.63;;;4.18;;
25351;SDS011;13304;48.464;8.712;2023-10-13T08:37:59;10.95;;;3.60;;
25351;SDS011;13304;48.464;8.712;2023-10-13T08:40:29;16.55;;;3.50;;
25351;SDS011;13304;48.464;8.712;2023-10-13T08:43:31;14.75;;;3.58;;
25351;SDS011;13304;48.464;8.712;2023-10-13T08:46:15;15.88;;;3.80;;
25351;SDS011;13304;48.464;8.712;2023-10-13T08:48:58;17.77;;;4.13;;
25351;SDS011;13304;48.464;8.712;2023-10-13T08:51:43;17.77;;;4.05;;
25351;SDS011;13304;48.464;8.712;2023-10-13T08:54:13;11.80;;;4.20;;
25351;SDS011;13304;48.464;8.712;2023-10-13T08:56:48;8.90;;;3.90;;
25351;SDS011;13304;48.464;8.712;2023-10-13T08:59:28;13.00;;;4.28;;
25351;SDS011;13304;48.464;8.712;2023-10-13T09:02:17;13.73;;;3.65;;
25351;SDS011;13304;48.464;8.712;2023-10-13T09:04:47;14.43;;;4.10;;
25351;SDS011;13304;48.464;8.712;2023-10-13T09:07:24;12.00;;;3.70;;
25351;SDS011;13304;48.464;8.712;2023-10-13T09:09:50;5.95;;;2.95;;
25351;SDS011;13304;48.464;8.712;2023-10-13T09:12:20;16.50;;;3.60;;
25351;SDS011;13304;48.464;8.712;2023-10-13T09:15:01;8.43;;;2.95;;
25351;SDS011;13304;48.464;8.712;2023-10-13T09:17:41;14.30;;;3.65;;
25351;SDS011;13304;48.464;8.712;2023-10-13T09:20:12;8.23;;;3.30;;
25351;SDS011;13304;48.464;8.712;2023-10-13T09:22:52;13.20;;;3.58;;
25351;SDS011;13304;48.464;8.712;2023-10-13T09:27:59;15.75;;;3.28;;
25351;SDS011;13304;48.464;8.712;2023-10-13T09:30:28;11.25;;;3.15;;
25351;SDS011;13304;48.464;8.712;2023-10-13T09:33:03;14.10;;;3.90;;
25351;SDS011;13304;48.464;8.712;2023-10-13T09:35:33;16.58;;;3.83;;
25351;SDS011;13304;48.464;8.712;2023-10-13T09:38:02;22.83;;;3.97;;
25351;SDS011;13304;48.464;8.712;2023-10-13T09:40:28;14.35;;;3.72;;
25351;SDS011;13304;48.464;8.712;2023-10-13T09:42:57;13.70;;;3.58;;
25351;SDS011;13304;48.464;8.712;2023-10-13T09:45:29;13.30;;;3.47;;
25351;SDS011;13304;48.464;8.712;2023-10-13T09:48:01;11.35;;;3.28;;
25351;SDS011;13304;48.464;8.712;2023-10-13T09:50:41;7.85;;;3.10;;
25351;SDS011;13304;48.464;8.712;2023-10-13T09:53:10;12.05;;;3.25;;
25351;SDS011;13304;48.464;8.712;2023-10-13T09:55:42;9.13;;;3.10;;
25351;SDS011;13304;48.464;8.712;2023-10-13T09:58:11;7.78;;;3.38;;
25351;SDS011;13304;48.464;8.712;2023-10-13T10:00:47;16.92;;;4.25;;
25351;SDS011;13304;48.464;8.712;2023-10-13T10:03:44;11.18;;;3.28;;
25351;SDS011;13304;48.464;8.712;2023-10-13T10:06:20;9.23;;;3.17;;
25351;SDS011;13304;48.464;8.712;2023-10-13T10:08:53;15.50;;;3.08;;
25351;SDS011;13304;48.464;8.712;2023-10-13T10:11:48;12.68;;;3.50;;
25351;SDS011;13304;48.464;8.712;2023-10-13T10:17:05;10.15;;;2.75;;
25351;SDS011;13304;48.464;8.712;2023-10-13T10:22:12;15.50;;;3.78;;
25351;SDS011;13304;48.464;8.712;2023-10-13T10:24:55;17.67;;;3.63;;
25351;SDS011;13304;48.464;8.712;2023-10-13T10:27:54;12.57;;;3.28;;
25351;SDS011;13304;48.464;8.712;2023-10-13T10:30:25;9.07;;;2.97;;
25351;SDS011;13304;48.464;8.712;2023-10-13T10:32:55;14.13;;;3.72;;
25351;SDS011;13304;48.464;8.712;2023-10-13T10:35:24;15.27;;;3.83;;
25351;SDS011;13304;48.464;8.712;2023-10-13T10:40:54;11.00;;;3.30;;
25351;SDS011;13304;48.464;8.712;2023-10-13T10:45:54;11.07;;;3.85;;
25351;SDS011;13304;48.464;8.712;2023-10-13T10:48:31;16.10;;;3.58;;
25351;SDS011;13304;48.464;8.712;2023-10-13T10:50:59;13.27;;;3.03;;
25351;SDS011;13304;48.464;8.712;2023-10-13T10:53:33;13.63;;;3.45;;
25351;SDS011;13304;48.464;8.712;2023-10-13T10:56:09;12.45;;;3.25;;
25351;SDS011;13304;48.464;8.712;2023-10-13T10:59:16;9.57;;;3.20;;
25351;SDS011;13304;48.464;8.712;2023-10-13T11:01:50;8.75;;;3.10;;
25351;SDS011;13304;48.464;8.712;2023-10-13T11:04:18;18.27;;;3.38;;
25351;SDS011;13304;48.464;8.712;2023-10-13T11:06:48;9.60;;;2.90;;
25351;SDS011;13304;48.464;8.712;2023-10-13T11:09:29;16.35;;;3.45;;
25351;SDS011;13304;48.464;8.712;2023-10-13T11:14:31;10.88;;;3.13;;
25351;SDS011;13304;48.464;8.712;2023-10-13T11:16:58;7.07;;;3.00;;
25351;SDS011;13304;48.464;8.712;2023-10-13T11:19:34;10.27;;;3.45;;
25351;SDS011;13304;48.464;8.712;2023-10-13T11:24:41;13.60;;;3.53;;
25351;SDS011;13304;48.464;8.712;2023-10-13T11:27:16;10.13;;;3.33;;
25351;SDS011;13304;48.464;8.712;2023-10-13T11:29:46;7.80;;;3.13;;
25351;SDS011;13304;48.464;8.712;2023-10-13T11:32:17;8.93;;;3.45;;
25351;SDS011;13304;48.464;8.712;2023-10-13T11:34:45;11.43;;;3.22;;
25351;SDS011;13304;48.464;8.712;2023-10-13T11:37:13;9.07;;;2.87;;
25351;SDS011;13304;48.464;8.712;2023-10-13T11:40:02;13.15;;;3.38;;
25351;SDS011;13304;48.464;8.712;2023-10-13T11:42:34;7.82;;;3.30;;
25351;SDS011;13304;48.464;8.712;2023-10-13T11:45:01;12.77;;;3.78;;
25351;SDS011;13304;48.464;8.712;2023-10-13T11:47:45;8.60;;;3.10;;
25351;SDS011;13304;48.464;8.712;2023-10-13T11:50:15;7.45;;;3.00;;
25351;SDS011;13304;48.464;8.712;2023-10-13T11:52:58;11.80;;;2.75;;
25351;SDS011;13304;48.464;8.712;2023-10-13T11:55:25;12.65;;;2.75;;
25351;SDS011;13304;48.464;8.712;2023-10-13T11:57:51;10.13;;;3.03;;
25351;SDS011;13304;48.464;8.712;2023-10-13T12:00:17;8.18;;;2.88;;
25351;SDS011;13304;48.464;8.712;2023-10-13T12:03:12;5.55;;;3.58;;
25351;SDS011;13304;48.464;8.712;2023-10-13T12:05:56;14.23;;;3.50;;
25351;SDS011;13304;48.464;8.712;2023-10-13T12:08:40;11.65;;;2.80;;
25351;SDS011;13304;48.464;8.712;2023-10-13T12:11:14;11.27;;;3.50;;
25351;SDS011;13304;48.464;8.712;2023-10-13T12:13:56;6.85;;;2.75;;
25351;SDS011;13304;48.464;8.712;2023-10-13T12:16:22;10.98;;;2.70;;
25351;SDS011;13304;48.464;8.712;2023-10-13T12:18:48;9.77;;;3.22;;
25351;SDS011;13304;48.464;8.712;2023-10-13T12:21:20;7.35;;;2.75;;
25351;SDS011;13304;48.464;8.712;2023-10-13T12:23:47;6.82;;;2.95;;
25351;SDS011;13304;48.464;8.712;2023-10-13T12:26:12;6.07;;;2.88;;
25351;SDS011;13304;48.464;8.712;2023-10-13T12:28:44;6.13;;;2.80;;
25351;SDS011;13304;48.464;8.712;2023-10-13T12:31:16;9.13;;;3.08;;
25351;SDS011;13304;48.464;8.712;2023-10-13T12:33:42;8.93;;;2.97;;
25351;SDS011;13304;48.464;8.712;2023-10-13T12:36:12;13.23;;;3.72;;
25351;SDS011;13304;48.464;8.712;2023-10-13T12:38:38;13.27;;;2.63;;
25351;SDS011;13304;48.464;8.712;2023-10-13T12:41:27;6.60;;;2.45;;
25351;SDS011;13304;48.464;8.712;2023-10-13T12:44:11;8.13;;;3.03;;
25351;SDS011;13304;48.464;8.712;2023-10-13T12:46:55;4.60;;;2.63;;
25351;SDS011;13304;48.464;8.712;2023-10-13T12:49:39;11.07;;;3.67;;
25351;SDS011;13304;48.464;8.712;2023-10-13T12:52:11;5.72;;;2.90;;
25351;SDS011;13304;48.464;8.712;2023-10-13T12:54:56;12.10;;;3.15;;
25351;SDS011;13304;48.464;8.712;2023-10-13T12:57:21;10.60;;;2.80;;
25351;SDS011;13304;48.464;8.712;2023-10-13T12:59:50;5.32;;;3.00;;
25351;SDS011;13304;48.464;8.712;2023-10-13T13:02:22;4.65;;;2.95;;
25351;SDS011;13304;48.464;8.712;2023-10-13T13:04:50;4.75;;;2.78;;
25351;SDS011;13304;48.464;8.712;2023-10-13T13:07:30;5.15;;;2.75;;
25351;SDS011;13304;48.464;8.712;2023-10-13T13:09:56;9.52;;;2.97;;
25351;SDS011;13304;48.464;8.712;2023-10-13T13:12:25;8.48;;;2.88;;
25351;SDS011;13304;48.464;8.712;2023-10-13T13:14:53;7.75;;;2.45;;
25351;SDS011;13304;48.464;8.712;2023-10-13T13:17:20;6.82;;;2.95;;
25351;SDS011;13304;48.464;8.712;2023-10-13T13:19:46;5.95;;;2.80;;
25351;SDS011;13304;48.464;8.712;2023-10-13T13:22:11;6.70;;;2.55;;
25351;SDS011;13304;48.464;8.712;2023-10-13T13:24:40;8.35;;;3.03;;
25351;SDS011;13304;48.464;8.712;2023-10-13T13:27:13;6.63;;;2.70;;
25351;SDS011;13304;48.464;8.712;2023-10-13T13:29:42;7.90;;;2.80;;
25351;SDS011;13304;48.464;8.712;2023-10-13T13:32:08;10.18;;;3.05;;
25351;SDS011;13304;48.464;8.712;2023-10-13T13:34:49;6.68;;;2.50;;
25351;SDS011;13304;48.464;8.712;2023-10-13T13:37:45;6.15;;;3.33;;
25351;SDS011;13304;48.464;8.712;2023-10-13T13:40:11;10.60;;;2.58;;
25351;SDS011;13304;48.464;8.712;2023-10-13T13:42:43;4.78;;;2.17;;
25351;SDS011;13304;48.464;8.712;2023-10-13T13:45:16;8.82;;;2.70;;
25351;SDS011;13304;48.464;8.712;2023-10-13T13:47:56;10.80;;;2.70;;
25351;SDS011;13304;48.464;8.712;2023-10-13T13:50:23;8.65;;;2.47;;
25351;SDS011;13304;48.464;8.712;2023-10-13T13:52:52;9.60;;;2.65;;
25351;SDS011;13304;48.464;8.712;2023-10-13T13:57:47;10.75;;;2.70;;
25351;SDS011;13304;48.464;8.712;2023-10-13T14:00:15;9.90;;;2.80;;
25351;SDS011;13304;48.464;8.712;2023-10-13T14:02:43;27.17;;;2.80;;
25351;SDS011;13304;48.464;8.712;2023-10-13T14:05:15;10.38;;;2.50;;
25351;SDS011;13304;48.464;8.712;2023-10-13T14:07:44;4.60;;;2.05;;
25351;SDS011;13304;48.464;8.712;2023-10-13T14:10:15;8.82;;;2.50;;
25351;SDS011;13304;48.464;8.712;2023-10-13T14:12:57;5.13;;;2.15;;
25351;SDS011;13304;48.464;8.712;2023-10-13T14:15:32;6.40;;;2.58;;
25351;SDS011;13304;48.464;8.712;2023-10-13T14:18:04;5.95;;;2.50;;
25351;SDS011;13304;48.464;8.712;2023-10-13T14:20:32;26.27;;;3.65;;
25351;SDS011;13304;48.464;8.712;2023-10-13T14:23:04;8.40;;;2.50;;
25351;SDS011;13304;48.464;8.712;2023-10-13T14:25:32;9.37;;;2.60;;
25351;SDS011;13304;48.464;8.712;2023-10-13T14:28:02;7.13;;;2.50;;
25351;SDS011;13304;48.464;8.712;2023-10-13T14:30:32;9.27;;;2.75;;
25351;SDS011;13304;48.464;8.712;2023-10-13T14:32:58;8.38;;;2.03;;
25351;SDS011;13304;48.464;8.712;2023-10-13T14:35:24;5.20;;;2.08;;
25351;SDS011;13304;48.464;8.712;2023-10-13T14:37:54;6.60;;;2.25;;
25351;SDS011;13304;48.464;8.712;2023-10-13T14:40:20;6.57;;;2.33;;
25351;SDS011;13304;48.464;8.712;2023-10-13T14:42:48;7.05;;;2.67;;
25351;SDS011;13304;48.464;8.712;2023-10-13T14:45:14;8.93;;;2.60;;
25351;SDS011;13304;48.464;8.712;2023-10-13T14:47:41;10.80;;;2.47;;
25351;SDS011;13304;48.464;8.712;2023-10-13T14:50:09;4.03;;;2.30;;
25351;SDS011;13304;48.464;8.712;2023-10-13T14:52:45;11.98;;;2.47;;
25351;SDS011;13304;48.464;8.712;2023-10-13T14:55:11;8.65;;;2.53;;
25351;SDS011;13304;48.464;8.712;2023-10-13T14:57:47;6.28;;;1.98;;
25351;SDS011;13304;48.464;8.712;2023-10-13T15:00:13;4.85;;;2.50;;
25351;SDS011;13304;48.464;8.712;2023-10-13T15:02:39;7.80;;;2.30;;
25351;SDS011;13304;48.464;8.712;2023-10-13T15:05:08;5.15;;;2.47;;
25351;SDS011;13304;48.464;8.712;2023-10-13T15:07:41;7.45;;;2.03;;
25351;SDS011;13304;48.464;8.712;2023-10-13T15:10:10;8.55;;;2.22;;
25351;SDS011;13304;48.464;8.712;2023-10-13T15:12:39;8.57;;;2.67;;
25351;SDS011;13304;48.464;8.712;2023-10-13T15:15:11;4.97;;;2.38;;
25351;SDS011;13304;48.464;8.712;2023-10-13T15:17:44;4.32;;;2.50;;
25351;SDS011;13304;48.464;8.712;2023-10-13T15:20:11;6.03;;;2.42;;
25351;SDS011;13304;48.464;8.712;2023-10-13T15:22:45;5.20;;;2.25;;
25351;SDS011;13304;48.464;8.712;2023-10-13T15:25:14;8.07;;;2.80;;
25351;SDS011;13304;48.464;8.712;2023-10-13T15:27:49;6.32;;;2.50;;
25351;SDS011;13304;48.464;8.712;2023-10-13T15:30:23;5.28;;;2.50;;
25351;SDS011;13304;48.464;8.712;2023-10-13T15:32:51;6.35;;;2.67;;
25351;SDS011;13304;48.464;8.712;2023-10-13T15:35:19;5.15;;;2.25;;
25351;SDS011;13304;48.464;8.712;2023-10-13T15:37:44;7.93;;;2.53;;
25351;SDS011;13304;48.464;8.712;2023-10-13T15:40:12;5.45;;;2.60;;
25351;SDS011;13304;48.464;8.712;2023-10-13T15:42:44;7.38;;;2.53;;
25351;SDS011;13304;48.464;8.712;2023-10-13T15:45:10;5.72;;;2.53;;
25351;SDS011;13304;48.464;8.712;2023-10-13T15:47:46;8.98;;;2.53;;
25351;SDS011;13304;48.464;8.712;2023-10-13T15:50:15;10.98;;;2.70;;
25351;SDS011;13304;48.464;8.712;2023-10-13T15:52:43;8.88;;;2.72;;
25351;SDS011;13304;48.464;8.712;2023-10-13T15:55:14;9.27;;;2.80;;
25351;SDS011;13304;48.464;8.712;2023-10-13T15:57:42;6.60;;;2.45;;
25351;SDS011;13304;48.464;8.712;2023-10-13T16:00:09;10.32;;;2.90;;